createdAt,value
2023-01-30T00:01:07.475Z,102286.34
2023-01-30T00:03:36.045Z,102277.84
2023-01-30T00:06:04.318Z,102277.28
2023-01-30T00:08:34.009Z,102268.03
2023-01-30T00:11:05.465Z,102263.03
2023-01-30T00:13:33.349Z,102271.25
2023-01-30T00:16:01.678Z,102269.09
2023-01-30T00:18:30.135Z,102274.56
2023-01-30T00:20:59.002Z,102275.25
2023-01-30T00:23:28.505Z,102267.72
2023-01-30T00:25:58.407Z,102267.16
2023-01-30T00:28:26.973Z,102267.97
2023-01-30T00:30:56.590Z,102265.22
2023-01-30T00:33:28.328Z,102272.59
2023-01-30T00:35:58.035Z,102279.53
2023-01-30T00:38:26.532Z,102267.97
2023-01-30T00:40:54.842Z,102269.66
2023-01-30T00:43:45.718Z,102268.56
2023-01-30T00:46:35.832Z,102262.97
2023-01-30T00:49:03.988Z,102261.81
2023-01-30T00:51:32.073Z,102266.00
2023-01-30T00:54:00.243Z,102268.16
2023-01-30T00:56:28.479Z,102264.09
2023-01-30T00:58:58.034Z,102270.41
2023-01-30T01:01:26.285Z,102266.97
2023-01-30T01:03:54.542Z,102272.56
2023-01-30T01:06:22.676Z,102272.31
2023-01-30T01:08:50.818Z,102273.38
2023-01-30T01:11:24.563Z,102279.59
2023-01-30T01:13:54.904Z,102286.50
2023-01-30T01:16:25.469Z,102286.16
2023-01-30T01:18:54.096Z,102286.88
2023-01-30T01:21:23.508Z,102289.50
2023-01-30T01:23:52.758Z,102283.63
2023-01-30T01:26:21.506Z,102294.13
2023-01-30T01:28:50.058Z,102301.19
2023-01-30T01:31:18.660Z,102307.06
2023-01-30T01:33:48.237Z,102308.84
2023-01-30T01:36:35.710Z,102308.84
2023-01-30T01:39:05.440Z,102299.91
2023-01-30T01:41:32.672Z,102306.09
2023-01-30T01:44:04.006Z,102304.88
2023-01-30T01:46:36.075Z,102315.59
2023-01-30T01:49:08.723Z,102322.03
2023-01-30T01:51:40.059Z,102319.84
2023-01-30T01:54:12.942Z,102317.78
2023-01-30T01:56:44.732Z,102315.47
2023-01-30T01:59:20.479Z,102313.81
2023-01-30T02:01:51.348Z,102326.22
2023-01-30T02:04:41.140Z,102329.78
2023-01-30T02:07:10.813Z,102332.63
2023-01-30T02:09:39.732Z,102330.97
2023-01-30T02:12:08.379Z,102330.47
2023-01-30T02:14:38.343Z,102340.22
2023-01-30T02:17:06.801Z,102334.97
2023-01-30T02:19:51.962Z,102344.00
2023-01-30T02:23:00.676Z,102337.06
2023-01-30T02:25:48.751Z,102338.03
2023-01-30T02:28:46.869Z,102347.44
2023-01-30T02:31:29.002Z,102345.66
2023-01-30T02:34:09.401Z,102346.19
2023-01-30T02:36:49.579Z,102323.69
2023-01-30T02:39:26.633Z,102330.41
2023-01-30T02:42:06.356Z,102331.03
2023-01-30T02:44:42.917Z,102334.34
2023-01-30T02:47:16.762Z,102321.97
2023-01-30T02:49:49.982Z,102341.91
2023-01-30T02:52:18.733Z,102340.00
2023-01-30T02:54:46.936Z,102357.44
2023-01-30T02:57:22.020Z,102353.34
2023-01-30T02:59:52.703Z,102360.06
2023-01-30T03:03:07.399Z,102354.31
2023-01-30T03:05:57.353Z,102350.63
2023-01-30T03:08:34.033Z,102353.84
2023-01-30T03:11:05.522Z,102354.69
2023-01-30T03:13:46.074Z,102356.16
2023-01-30T03:16:17.222Z,102365.94
2023-01-30T03:18:48.861Z,102371.41
2023-01-30T03:21:16.707Z,102374.25
2023-01-30T03:23:46.878Z,102380.56
2023-01-30T03:26:19.492Z,102384.63
2023-01-30T03:28:50.359Z,102389.88
2023-01-30T03:31:18.878Z,102385.59
2023-01-30T03:33:48.750Z,102389.06
2023-01-30T03:36:17.068Z,102393.47
2023-01-30T03:38:45.366Z,102389.56
2023-01-30T03:41:13.744Z,102392.91
2023-01-30T03:43:41.924Z,102386.81
2023-01-30T03:46:10.190Z,102400.06
2023-01-30T03:48:38.492Z,102391.22
2023-01-30T03:51:08.139Z,102394.56
2023-01-30T03:53:36.304Z,102401.28
2023-01-30T03:56:04.560Z,102400.56
2023-01-30T03:58:32.842Z,102414.53
2023-01-30T04:01:01.238Z,102410.31
2023-01-30T04:03:29.445Z,102416.31
2023-01-30T04:05:57.703Z,102427.13
2023-01-30T04:08:27.597Z,102435.13
2023-01-30T04:10:55.758Z,102441.81
2023-01-30T04:13:23.796Z,102431.31
2023-01-30T04:15:51.931Z,102429.88
2023-01-30T04:18:20.137Z,102434.38
2023-01-30T04:20:48.306Z,102440.38
2023-01-30T04:23:16.511Z,102432.28
2023-01-30T04:25:48.999Z,102423.69
2023-01-30T04:28:17.136Z,102430.81
2023-01-30T04:30:45.311Z,102424.63
2023-01-30T04:33:13.425Z,102414.13
2023-01-30T04:35:41.577Z,102411.00
2023-01-30T04:38:09.777Z,102414.34
2023-01-30T04:40:37.928Z,102409.53
2023-01-30T04:43:07.480Z,102416.16
2023-01-30T04:45:35.608Z,102411.13
2023-01-30T04:48:03.763Z,102421.84
2023-01-30T04:50:31.933Z,102414.09
2023-01-30T04:53:00.144Z,102430.88
2023-01-30T04:55:28.517Z,102423.00
2023-01-30T04:57:56.757Z,102430.66
2023-01-30T05:00:27.187Z,102421.09
2023-01-30T05:02:56.249Z,102420.25
2023-01-30T05:05:25.122Z,102412.50
2023-01-30T05:07:53.668Z,102416.59
2023-01-30T05:10:22.448Z,102423.63
2023-01-30T05:12:50.615Z,102417.63
2023-01-30T05:15:19.359Z,102428.38
2023-01-30T05:17:49.093Z,102429.41
2023-01-30T05:20:17.459Z,102431.19
2023-01-30T05:22:45.905Z,102434.84
2023-01-30T05:25:13.986Z,102431.41
2023-01-30T05:27:42.240Z,102434.97
2023-01-30T05:30:11.707Z,102435.81
2023-01-30T05:32:39.845Z,102442.97
2023-01-30T05:35:10.119Z,102437.72
2023-01-30T05:37:38.988Z,102441.28
2023-01-30T05:40:09.044Z,102428.91
2023-01-30T05:42:37.209Z,102429.53
2023-01-30T05:45:05.947Z,102430.38
2023-01-30T05:47:34.222Z,102423.53
2023-01-30T05:50:02.519Z,102439.38
2023-01-30T05:52:32.793Z,102440.44
2023-01-30T05:55:00.983Z,102435.50
2023-01-30T05:57:29.164Z,102440.03
2023-01-30T05:59:57.323Z,102441.94
2023-01-30T06:02:25.475Z,102446.66
2023-01-30T06:04:53.730Z,102448.63
2023-01-30T06:07:21.840Z,102440.84
2023-01-30T06:09:51.343Z,102441.16
2023-01-30T06:12:19.496Z,102429.25
2023-01-30T06:14:47.775Z,102443.06
2023-01-30T06:17:15.996Z,102453.25
2023-01-30T06:19:44.157Z,102454.19
2023-01-30T06:22:12.263Z,102460.06
2023-01-30T06:24:40.516Z,102451.56
2023-01-30T06:27:10.159Z,102443.38
2023-01-30T06:29:38.386Z,102459.31
2023-01-30T06:32:06.909Z,102448.00
2023-01-30T06:34:35.182Z,102454.28
2023-01-30T06:37:03.459Z,102457.88
2023-01-30T06:39:31.909Z,102454.59
2023-01-30T06:41:59.986Z,102460.25
2023-01-30T06:44:29.428Z,102457.00
2023-01-30T06:46:57.623Z,102453.53
2023-01-30T06:49:26.134Z,102454.59
2023-01-30T06:51:54.387Z,102460.81
2023-01-30T06:54:22.637Z,102459.94
2023-01-30T06:56:50.793Z,102459.22
2023-01-30T06:59:19.008Z,102460.03
2023-01-30T07:01:48.604Z,102461.94
2023-01-30T07:04:16.786Z,102459.50
2023-01-30T07:06:46.273Z,102477.22
2023-01-30T07:09:14.473Z,102474.59
2023-01-30T07:11:42.674Z,102481.53
2023-01-30T07:14:11.011Z,102487.81
2023-01-30T07:16:39.207Z,102494.09
2023-01-30T07:19:08.806Z,102501.22
2023-01-30T07:21:36.871Z,102491.69
2023-01-30T07:24:05.318Z,102494.31
2023-01-30T07:26:33.650Z,102499.75
2023-01-30T07:29:01.918Z,102498.91
2023-01-30T07:31:30.063Z,102500.88
2023-01-30T07:33:58.313Z,102503.50
2023-01-30T07:36:27.790Z,102504.44
2023-01-30T07:38:55.925Z,102517.56
2023-01-30T07:41:24.092Z,102509.69
2023-01-30T07:43:52.303Z,102520.16
2023-01-30T07:46:20.510Z,102520.28
2023-01-30T07:48:48.764Z,102526.34
2023-01-30T07:51:16.878Z,102522.06
2023-01-30T07:53:46.329Z,102524.69
2023-01-30T07:56:18.785Z,102528.03
2023-01-30T07:58:46.980Z,102524.47
2023-01-30T08:01:15.363Z,102526.06
2023-01-30T08:03:43.955Z,102539.06
2023-01-30T08:06:12.577Z,102531.84
2023-01-30T08:08:40.770Z,102540.44
2023-01-30T08:11:10.593Z,102543.69
2023-01-30T08:13:38.683Z,102541.72
2023-01-30T08:16:08.481Z,102530.19
2023-01-30T08:18:36.765Z,102550.31
2023-01-30T08:21:06.875Z,102551.78
2023-01-30T08:23:37.778Z,102549.06
2023-01-30T08:26:07.438Z,102546.38
2023-01-30T08:28:36.946Z,102546.13
2023-01-30T08:31:10.096Z,102545.22
2023-01-30T08:33:38.307Z,102550.16
2023-01-30T08:36:07.219Z,102536.22
2023-01-30T08:38:35.471Z,102543.03
2023-01-30T08:41:06.773Z,102537.59
2023-01-30T08:43:36.845Z,102539.25
2023-01-30T08:46:07.894Z,102539.97
2023-01-30T08:48:49.185Z,102539.91
2023-01-30T08:51:18.586Z,102535.19
2023-01-30T08:53:46.786Z,102549.97
2023-01-30T08:56:14.891Z,102557.72
2023-01-30T08:58:46.761Z,102559.19
2023-01-30T09:01:15.049Z,102558.06
2023-01-30T09:03:43.252Z,102567.59
2023-01-30T09:06:11.488Z,102573.69
2023-01-30T09:08:39.692Z,102579.78
2023-01-30T09:11:08.154Z,102583.78
2023-01-30T09:13:36.815Z,102579.25
2023-01-30T09:16:07.992Z,102585.34
2023-01-30T09:18:39.108Z,102587.97
2023-01-30T09:21:07.764Z,102593.34
2023-01-30T09:23:36.120Z,102595.13
2023-01-30T09:26:04.633Z,102595.94
2023-01-30T09:28:33.411Z,102595.94
2023-01-30T09:31:03.294Z,102598.88
2023-01-30T09:33:33.217Z,102605.16
2023-01-30T09:36:01.835Z,102599.06
2023-01-30T09:38:29.894Z,102602.75
2023-01-30T09:41:14.992Z,102605.28
2023-01-30T09:44:02.968Z,102606.09
2023-01-30T09:46:42.167Z,102621.97
2023-01-30T09:49:26.355Z,102601.69
2023-01-30T09:52:04.611Z,102609.38
2023-01-30T09:54:36.613Z,102610.03
2023-01-30T09:57:21.415Z,102616.75
2023-01-30T10:00:01.010Z,102631.84
2023-01-30T10:02:40.468Z,102621.25
2023-01-30T10:05:10.848Z,102633.53
2023-01-30T10:07:57.330Z,102637.81
2023-01-30T10:10:39.307Z,102644.97
2023-01-30T10:13:20.434Z,102645.81
2023-01-30T10:15:54.958Z,102647.28
2023-01-30T10:18:42.447Z,102646.44
2023-01-30T10:21:25.967Z,102641.19
2023-01-30T10:24:20.495Z,102651.47
2023-01-30T10:26:49.666Z,102645.31
2023-01-30T10:29:23.332Z,102654.75
2023-01-30T10:31:55.607Z,102664.59
2023-01-30T10:34:29.489Z,102652.22
2023-01-30T10:37:05.608Z,102668.69
2023-01-30T10:39:54.354Z,102668.50
2023-01-30T10:42:29.491Z,102667.97
2023-01-30T10:45:04.533Z,102659.69
2023-01-30T10:47:47.378Z,102662.31
2023-01-30T10:50:19.686Z,102641.84
2023-01-30T10:52:57.008Z,102645.22
2023-01-30T10:55:37.622Z,102649.84
2023-01-30T10:58:16.583Z,102653.09
2023-01-30T11:00:51.633Z,102646.88
2023-01-30T11:03:27.542Z,102632.00
2023-01-30T11:06:01.076Z,102638.81
2023-01-30T11:08:33.251Z,102639.03
2023-01-30T11:11:01.981Z,102644.81
2023-01-30T11:13:32.104Z,102644.59
2023-01-30T11:16:04.077Z,102647.03
2023-01-30T11:19:17.779Z,102645.00
2023-01-30T11:21:32.047Z,102650.69
2023-01-30T11:24:19.480Z,102657.63
2023-01-30T11:26:49.036Z,102644.28
2023-01-30T11:29:29.534Z,102654.38
2023-01-30T11:32:02.372Z,102652.28
2023-01-30T11:34:30.802Z,102652.91
2023-01-30T11:37:18.780Z,102664.47
2023-01-30T11:39:53.416Z,102660.03
2023-01-30T11:42:25.890Z,102669.28
2023-01-30T11:45:10.736Z,102673.69
2023-01-30T11:47:57.857Z,102669.59
2023-01-30T11:50:37.013Z,102673.69
2023-01-30T11:53:23.186Z,102678.31
2023-01-30T11:56:03.740Z,102681.91
2023-01-30T11:58:36.066Z,102677.47
2023-01-30T12:01:05.443Z,102676.63
2023-01-30T12:03:34.622Z,102680.94
2023-01-30T12:06:02.826Z,102681.78
2023-01-30T12:08:42.202Z,102684.53
2023-01-30T12:11:28.472Z,102688.00
2023-01-30T12:14:06.018Z,102683.25
2023-01-30T12:16:48.163Z,102689.78
2023-01-30T12:19:29.440Z,102690.63
2023-01-30T12:22:05.440Z,102685.47
2023-01-30T12:24:41.555Z,102684.41
2023-01-30T12:27:18.749Z,102679.25
2023-01-30T12:29:56.906Z,102681.31
2023-01-30T12:32:28.708Z,102680.94
2023-01-30T12:34:56.875Z,102673.69
2023-01-30T12:37:43.296Z,102671.16
2023-01-30T12:40:22.972Z,102678.38
2023-01-30T12:43:28.540Z,102672.03
2023-01-30T12:46:05.807Z,102670.22
2023-01-30T12:49:11.055Z,102662.38
2023-01-30T12:51:54.598Z,102661.19
2023-01-30T12:54:36.023Z,102661.69
2023-01-30T12:57:19.775Z,102654.66
2023-01-30T13:00:01.423Z,102658.09
2023-01-30T13:02:37.620Z,102659.34
2023-01-30T13:05:21.433Z,102658.28
2023-01-30T13:08:04.340Z,102653.50
2023-01-30T13:10:41.152Z,102653.50
2023-01-30T13:13:19.266Z,102648.84
2023-01-30T13:15:58.239Z,102648.63
2023-01-30T13:18:31.407Z,102645.66
2023-01-30T13:21:08.625Z,102642.34
2023-01-30T13:23:49.891Z,102642.44
2023-01-30T13:26:22.448Z,102649.63
2023-01-30T13:28:54.328Z,102641.72
2023-01-30T13:31:27.180Z,102644.47
2023-01-30T13:34:08.737Z,102651.84
2023-01-30T13:36:44.290Z,102656.63
2023-01-30T13:41:56.586Z,102658.44
2023-01-30T13:44:30.960Z,102664.44
2023-01-30T13:47:08.773Z,102655.44
2023-01-30T13:49:45.993Z,102652.94
2023-01-30T13:52:24.619Z,102656.91
2023-01-30T13:55:02.666Z,102655.94
2023-01-30T13:57:43.969Z,102652.47
2023-01-30T14:00:33.536Z,102658.50
2023-01-30T14:03:26.840Z,102643.41
2023-01-30T14:06:23.940Z,102643.06
2023-01-30T14:08:59.194Z,102637.66
2023-01-30T14:11:48.152Z,102637.22
2023-01-30T14:14:27.992Z,102631.34
2023-01-30T14:16:58.062Z,102635.56
2023-01-30T14:19:36.677Z,102641.66
2023-01-30T14:22:19.230Z,102641.53
2023-01-30T14:25:25.715Z,102638.81
2023-01-30T14:27:55.802Z,102641.53
2023-01-30T14:30:38.757Z,102645.13
2023-01-30T14:33:48.854Z,102649.44
2023-01-30T14:36:38.778Z,102658.91
2023-01-30T14:39:40.614Z,102646.09
2023-01-30T14:42:21.712Z,102641.78
2023-01-30T14:45:03.704Z,102649.16
2023-01-30T14:47:37.662Z,102659.13
2023-01-30T14:50:20.911Z,102669.66
2023-01-30T14:52:55.751Z,102664.81
2023-01-30T14:55:29.563Z,102668.31
2023-01-30T14:58:01.328Z,102666.97
2023-01-30T15:00:32.573Z,102673.31
2023-01-30T15:03:03.667Z,102683.00
2023-01-30T15:05:39.011Z,102674.88
2023-01-30T15:08:13.751Z,102672.13
2023-01-30T15:10:55.574Z,102676.31
2023-01-30T15:13:46.528Z,102673.06
2023-01-30T15:16:43.507Z,102673.69
2023-01-30T15:19:31.457Z,102675.59
2023-01-30T15:22:11.939Z,102667.59
2023-01-30T15:25:12.285Z,102673.41
2023-01-30T15:27:55.067Z,102667.66
2023-01-30T15:30:34.970Z,102675.31
2023-01-30T15:33:22.933Z,102678.44
2023-01-30T15:35:57.870Z,102661.91
2023-01-30T15:38:29.738Z,102662.63
2023-01-30T15:41:02.249Z,102654.00
2023-01-30T15:44:01.270Z,102653.50
2023-01-30T15:46:41.248Z,102652.53
2023-01-30T15:49:27.983Z,102656.97
2023-01-30T15:51:56.205Z,102655.28
2023-01-30T15:54:25.360Z,102654.34
2023-01-30T15:56:54.006Z,102651.34
2023-01-30T15:59:32.560Z,102643.66
2023-01-30T16:02:03.970Z,102634.94
2023-01-30T16:04:32.581Z,102635.75
2023-01-30T16:07:01.086Z,102635.75
2023-01-30T16:09:29.260Z,102644.84
2023-01-30T16:11:57.329Z,102632.00
2023-01-30T16:14:27.052Z,102627.63
2023-01-30T16:17:00.790Z,102633.72
2023-01-30T16:19:31.916Z,102633.09
2023-01-30T16:22:02.628Z,102632.13
2023-01-30T16:24:33.209Z,102636.69
2023-01-30T16:27:04.497Z,102626.88
2023-01-30T16:29:39.508Z,102627.97
2023-01-30T16:32:14.410Z,102628.28
2023-01-30T16:34:42.866Z,102625.75
2023-01-30T16:37:27.438Z,102626.09
2023-01-30T16:40:06.125Z,102620.97
2023-01-30T16:42:34.326Z,102615.81
2023-01-30T16:45:43.278Z,102622.88
2023-01-30T16:48:31.323Z,102611.50
2023-01-30T16:51:15.934Z,102623.94
2023-01-30T16:53:51.316Z,102618.03
2023-01-30T16:56:20.495Z,102618.78
2023-01-30T16:58:52.876Z,102619.72
2023-01-30T17:01:24.247Z,102617.00
2023-01-30T17:04:00.727Z,102622.13
2023-01-30T17:06:34.872Z,102618.03
2023-01-30T17:09:05.079Z,102615.31
2023-01-30T17:11:36.079Z,102617.00
2023-01-30T17:14:23.111Z,102602.50
2023-01-30T17:17:03.778Z,102608.69
2023-01-30T17:19:41.776Z,102600.22
2023-01-30T17:22:20.771Z,102602.84
2023-01-30T17:24:48.949Z,102593.38
2023-01-30T17:27:17.845Z,102590.97
2023-01-30T17:29:47.399Z,102593.50
2023-01-30T17:32:17.135Z,102592.41
2023-01-30T17:34:46.676Z,102590.75
2023-01-30T17:37:17.255Z,102586.31
2023-01-30T17:39:46.050Z,102580.22
2023-01-30T17:42:21.179Z,102576.88
2023-01-30T17:44:49.353Z,102576.88
2023-01-30T17:47:17.642Z,102571.84
2023-01-30T17:49:47.133Z,102561.19
2023-01-30T17:52:15.267Z,102558.91
2023-01-30T17:54:43.487Z,102555.69
2023-01-30T17:57:15.777Z,102549.81
2023-01-30T17:59:44.097Z,102553.91
2023-01-30T18:02:12.146Z,102541.69
2023-01-30T18:04:40.819Z,102533.78
2023-01-30T18:07:14.784Z,102538.97
2023-01-30T18:09:43.229Z,102545.19
2023-01-30T18:12:11.407Z,102533.56
2023-01-30T18:14:39.568Z,102531.16
2023-01-30T18:17:08.185Z,102514.69
2023-01-30T18:19:36.345Z,102516.47
2023-01-30T18:22:04.557Z,102508.72
2023-01-30T18:24:34.599Z,102507.75
2023-01-30T18:27:02.961Z,102503.53
2023-01-30T18:29:31.262Z,102491.34
2023-01-30T18:32:05.150Z,102484.31
2023-01-30T18:34:33.933Z,102490.53
2023-01-30T18:37:02.134Z,102479.88
2023-01-30T18:39:32.068Z,102467.38
2023-01-30T18:42:03.125Z,102469.16
2023-01-30T18:44:31.767Z,102462.22
2023-01-30T18:46:59.942Z,102468.19
2023-01-30T18:49:28.175Z,102471.56
2023-01-30T18:51:56.654Z,102466.91
2023-01-30T18:54:24.885Z,102467.63
2023-01-30T18:56:53.126Z,102466.81
2023-01-30T18:59:23.079Z,102464.75
2023-01-30T19:01:51.213Z,102464.75
2023-01-30T19:04:19.467Z,102472.44
2023-01-30T19:06:47.641Z,102467.88
2023-01-30T19:09:18.149Z,102478.41
2023-01-30T19:12:03.696Z,102484.41
2023-01-30T19:14:33.222Z,102495.03
2023-01-30T19:17:01.350Z,102493.34
2023-01-30T19:19:29.841Z,102482.94
2023-01-30T19:21:57.984Z,102482.25
2023-01-30T19:24:26.049Z,102481.63
2023-01-30T19:26:54.321Z,102481.00
2023-01-30T19:29:22.606Z,102480.38
2023-01-30T19:31:52.252Z,102473.56
2023-01-30T19:34:20.570Z,102466.66
2023-01-30T19:36:48.821Z,102463.41
2023-01-30T19:39:17.053Z,102455.28
2023-01-30T19:41:45.220Z,102458.63
2023-01-30T19:44:13.613Z,102443.00
2023-01-30T19:46:41.925Z,102443.91
2023-01-30T19:49:12.783Z,102445.38
2023-01-30T19:51:41.851Z,102454.00
2023-01-30T19:54:12.936Z,102440.25
2023-01-30T19:56:42.739Z,102437.75
2023-01-30T19:59:13.838Z,102431.88
2023-01-30T20:01:42.154Z,102434.38
2023-01-30T20:04:10.357Z,102433.53
2023-01-30T20:06:43.364Z,102438.09
2023-01-30T20:09:12.314Z,102428.50
2023-01-30T20:11:42.414Z,102427.56
2023-01-30T20:14:12.456Z,102422.31
2023-01-30T20:16:41.300Z,102415.00
2023-01-30T20:19:13.564Z,102415.84
2023-01-30T20:21:43.647Z,102415.00
2023-01-30T20:24:12.855Z,102427.81
2023-01-30T20:26:41.560Z,102418.13
2023-01-30T20:29:11.713Z,102410.97
2023-01-30T20:31:40.101Z,102395.00
2023-01-30T20:34:11.886Z,102388.88
2023-01-30T20:36:40.175Z,102387.09
2023-01-30T20:39:09.740Z,102379.81
2023-01-30T20:41:38.747Z,102374.44
2023-01-30T20:44:09.169Z,102376.13
2023-01-30T20:46:41.508Z,102372.66
2023-01-30T20:49:14.182Z,102364.41
2023-01-30T20:51:42.772Z,102357.47
2023-01-30T20:54:14.415Z,102359.16
2023-01-30T20:56:44.302Z,102349.34
2023-01-30T20:59:15.049Z,102343.13
2023-01-30T21:01:44.136Z,102350.06
2023-01-30T21:04:14.582Z,102361.31
2023-01-30T21:06:46.132Z,102354.25
2023-01-30T21:09:18.335Z,102349.81
2023-01-30T21:11:46.366Z,102343.72
2023-01-30T21:14:14.926Z,102346.50
2023-01-30T21:16:43.401Z,102340.50
2023-01-30T21:19:16.056Z,102343.47
2023-01-30T21:21:50.613Z,102343.38
2023-01-30T21:24:24.406Z,102347.81
2023-01-30T21:26:52.927Z,102341.69
2023-01-30T21:29:23.594Z,102344.56
2023-01-30T21:31:52.523Z,102347.66
2023-01-30T21:34:20.870Z,102339.69
2023-01-30T21:37:10.010Z,102330.59
2023-01-30T21:40:08.652Z,102330.34
2023-01-30T21:42:54.047Z,102316.38
2023-01-30T21:45:22.695Z,102319.59
2023-01-30T21:47:54.329Z,102312.06
2023-01-30T21:50:22.397Z,102307.78
2023-01-30T21:52:50.856Z,102306.19
2023-01-30T21:55:20.848Z,102315.06
2023-01-30T21:57:49.245Z,102312.56
2023-01-30T22:00:17.634Z,102304.66
2023-01-30T22:02:45.867Z,102301.91
2023-01-30T22:05:13.962Z,102288.63
2023-01-30T22:07:42.176Z,102294.00
2023-01-30T22:10:11.556Z,102294.00
2023-01-30T22:12:41.730Z,102279.66
2023-01-30T22:15:10.767Z,102277.88
2023-01-30T22:17:39.016Z,102278.56
2023-01-30T22:20:10.079Z,102270.59
2023-01-30T22:22:38.657Z,102266.63
2023-01-30T22:25:08.091Z,102265.69
2023-01-30T22:27:36.241Z,102268.31
2023-01-30T22:30:06.591Z,102275.47
2023-01-30T22:32:34.794Z,102274.78
2023-01-30T22:35:03.067Z,102273.94
2023-01-30T22:37:31.361Z,102269.50
2023-01-30T22:39:59.539Z,102268.41
2023-01-30T22:42:27.797Z,102265.69
2023-01-30T22:44:55.914Z,102267.34
2023-01-30T22:47:25.815Z,102265.78
2023-01-30T22:49:53.904Z,102264.13
2023-01-30T22:52:22.064Z,102259.97
2023-01-30T22:54:50.371Z,102251.47
2023-01-30T22:57:18.632Z,102256.13
2023-01-30T22:59:46.774Z,102249.91
2023-01-30T23:02:15.263Z,102256.81
2023-01-30T23:04:44.856Z,102250.16
2023-01-30T23:07:16.309Z,102248.25
2023-01-30T23:09:44.227Z,102251.22
2023-01-30T23:12:29.491Z,102248.25
2023-01-30T23:14:57.601Z,102236.53
2023-01-30T23:17:43.447Z,102233.66
2023-01-30T23:20:13.743Z,102232.69
2023-01-30T23:22:41.989Z,102228.97
2023-01-30T23:25:11.177Z,102230.41
2023-01-30T23:27:39.383Z,102229.34
2023-01-30T23:30:08.733Z,102231.69
2023-01-30T23:32:36.797Z,102223.81
2023-01-30T23:35:05.152Z,102227.28
2023-01-30T23:37:48.459Z,102220.47
2023-01-30T23:40:16.992Z,102208.03
2023-01-30T23:42:45.405Z,102209.72
2023-01-30T23:45:13.662Z,102205.31
2023-01-30T23:47:41.895Z,102195.16
2023-01-30T23:50:11.539Z,102190.59
2023-01-30T23:52:41.038Z,102192.00
2023-01-30T23:55:09.983Z,102185.69
2023-01-30T23:57:38.502Z,102175.16
